createdAt,value
2023-03-24T00:00:22.614Z,46.38
2023-03-24T00:01:22.593Z,47.44
2023-03-24T00:02:22.658Z,52.17
2023-03-24T00:03:22.672Z,56.45
2023-03-24T00:04:22.986Z,44.40
2023-03-24T00:05:22.904Z,47.65
2023-03-24T00:06:22.740Z,46.21
2023-03-24T00:07:25.089Z,50.37
2023-03-24T00:08:22.526Z,43.42
2023-03-24T00:09:22.531Z,49.09
2023-03-24T00:10:22.723Z,46.97
2023-03-24T00:11:22.507Z,42.75
2023-03-24T00:12:22.487Z,42.75
2023-03-24T00:13:22.490Z,47.04
2023-03-24T00:14:22.479Z,45.42
2023-03-24T00:15:22.495Z,48.79
2023-03-24T00:16:22.500Z,49.23
2023-03-24T00:17:22.457Z,48.07
2023-03-24T00:18:22.448Z,52.06
2023-03-24T00:19:22.440Z,53.86
2023-03-24T00:20:22.589Z,58.25
2023-03-24T00:21:22.423Z,53.01
2023-03-24T00:22:22.412Z,49.00
2023-03-24T00:23:22.408Z,52.69
2023-03-24T00:24:22.402Z,53.05
2023-03-24T00:25:22.418Z,55.28
2023-03-24T00:26:22.383Z,50.40
2023-03-24T00:27:22.376Z,52.60
2023-03-24T00:28:22.369Z,53.89
2023-03-24T00:29:22.387Z,57.71
2023-03-24T00:30:22.353Z,53.03
2023-03-24T00:31:22.438Z,55.80
2023-03-24T00:32:22.340Z,60.31
2023-03-24T00:33:22.330Z,55.50
2023-03-24T00:34:22.326Z,60.70
2023-03-24T00:35:22.316Z,48.95
2023-03-24T00:36:22.338Z,45.25
2023-03-24T00:37:22.311Z,46.41
2023-03-24T00:38:22.300Z,51.62
2023-03-24T00:39:22.293Z,56.78
2023-03-24T00:40:22.288Z,49.39
2023-03-24T00:41:22.304Z,59.99
2023-03-24T00:42:22.262Z,53.52
2023-03-24T00:43:22.259Z,47.17
2023-03-24T00:44:22.255Z,52.15
2023-03-24T00:45:22.237Z,54.46
2023-03-24T00:46:22.317Z,53.44
2023-03-24T00:47:22.223Z,48.73
2023-03-24T00:48:22.212Z,50.02
2023-03-24T00:49:22.208Z,56.73
2023-03-24T00:50:22.196Z,55.98
2023-03-24T00:51:22.219Z,54.99
2023-03-24T00:52:22.187Z,50.37
2023-03-24T00:53:22.172Z,48.85
2023-03-24T00:54:22.165Z,51.91
2023-03-24T00:55:22.156Z,59.91
2023-03-24T00:56:22.177Z,58.11
2023-03-24T00:57:22.266Z,62.58
2023-03-24T00:58:22.162Z,57.35
2023-03-24T00:59:23.127Z,54.30
2023-03-24T01:00:22.135Z,57.78
2023-03-24T01:01:22.206Z,52.89
2023-03-24T01:02:22.370Z,52.65
2023-03-24T01:03:22.107Z,54.46
2023-03-24T01:04:22.090Z,57.74
2023-03-24T01:05:22.083Z,49.04
2023-03-24T01:06:22.103Z,53.61
2023-03-24T01:07:22.062Z,53.48
2023-03-24T01:08:22.051Z,55.61
2023-03-24T01:09:22.042Z,48.41
2023-03-24T01:10:22.040Z,50.42
2023-03-24T01:11:22.053Z,52.12
2023-03-24T01:12:22.020Z,56.06
2023-03-24T01:13:22.009Z,47.96
2023-03-24T01:14:22.008Z,50.07
2023-03-24T01:15:21.997Z,48.97
2023-03-24T01:16:22.041Z,47.87
2023-03-24T01:17:21.983Z,52.47
2023-03-24T01:18:21.971Z,50.17
2023-03-24T01:19:22.240Z,45.97
2023-03-24T01:20:21.953Z,47.23
2023-03-24T01:21:21.980Z,48.28
2023-03-24T01:22:21.941Z,54.12
2023-03-24T01:23:21.931Z,41.40
2023-03-24T01:24:21.923Z,44.27
2023-03-24T01:25:21.932Z,57.40
2023-03-24T01:26:21.939Z,55.32
2023-03-24T01:27:21.895Z,49.42
2023-03-24T01:28:21.885Z,41.69
2023-03-24T01:29:21.878Z,41.26
2023-03-24T01:30:21.881Z,44.71
2023-03-24T01:31:21.928Z,55.50
2023-03-24T01:32:21.877Z,56.91
2023-03-24T01:33:21.848Z,51.03
2023-03-24T01:34:21.843Z,49.18
2023-03-24T01:35:21.837Z,43.97
2023-03-24T01:36:21.849Z,53.18
2023-03-24T01:37:21.819Z,53.37
2023-03-24T01:38:21.814Z,51.34
2023-03-24T01:39:21.797Z,45.00
2023-03-24T01:40:21.923Z,53.96
2023-03-24T01:41:21.816Z,44.37
2023-03-24T01:42:21.779Z,43.68
2023-03-24T01:43:21.770Z,60.70
2023-03-24T01:44:21.772Z,51.59
2023-03-24T01:45:21.759Z,53.33
2023-03-24T01:46:21.829Z,53.33
2023-03-24T01:47:21.744Z,52.65
2023-03-24T01:48:21.739Z,44.30
2023-03-24T01:49:21.733Z,41.26
2023-03-24T01:50:21.715Z,48.64
2023-03-24T01:51:21.746Z,55.66
2023-03-24T01:52:21.708Z,49.12
2023-03-24T01:53:21.699Z,47.66
2023-03-24T01:54:21.698Z,43.79
2023-03-24T01:55:21.690Z,48.30
2023-03-24T01:56:21.697Z,46.91
2023-03-24T01:57:21.670Z,53.40
2023-03-24T01:58:21.660Z,61.03
2023-03-24T01:59:21.650Z,51.47
2023-03-24T02:00:21.642Z,41.86
2023-03-24T02:01:21.698Z,52.37
2023-03-24T02:02:21.628Z,56.86
2023-03-24T02:03:21.618Z,54.12
2023-03-24T02:04:21.656Z,56.07
2023-03-24T02:05:21.606Z,43.17
2023-03-24T02:06:21.618Z,45.05
2023-03-24T02:07:21.587Z,59.79
2023-03-24T02:08:22.576Z,51.99
2023-03-24T02:09:21.580Z,38.77
2023-03-24T02:10:21.561Z,41.88
2023-03-24T02:11:21.580Z,57.71
2023-03-24T02:12:21.550Z,40.12
2023-03-24T02:13:21.542Z,51.06
2023-03-24T02:14:21.536Z,41.50
2023-03-24T02:15:21.529Z,39.06
2023-03-24T02:16:21.598Z,43.93
2023-03-24T02:17:21.508Z,43.01
2023-03-24T02:18:21.516Z,49.02
2023-03-24T02:19:22.988Z,37.75
2023-03-24T02:20:21.493Z,47.82
2023-03-24T02:21:21.516Z,48.64
2023-03-24T02:22:21.475Z,45.85
2023-03-24T02:23:21.460Z,51.24
2023-03-24T02:24:21.466Z,47.36
2023-03-24T02:25:21.462Z,49.72
2023-03-24T02:26:21.477Z,59.08
2023-03-24T02:27:21.430Z,54.93
2023-03-24T02:28:21.426Z,54.18
2023-03-24T02:29:21.411Z,44.06
2023-03-24T02:30:21.408Z,52.76
2023-03-24T02:31:21.436Z,50.35
2023-03-24T02:32:21.419Z,59.29
2023-03-24T02:33:21.383Z,51.40
2023-03-24T02:34:21.380Z,38.54
2023-03-24T02:35:21.372Z,40.90
2023-03-24T02:36:21.387Z,44.46
2023-03-24T02:37:21.391Z,40.34
2023-03-24T02:38:21.348Z,50.72
2023-03-24T02:39:21.339Z,52.33
2023-03-24T02:40:21.345Z,44.80
2023-03-24T02:41:21.327Z,51.89
2023-03-24T02:42:21.345Z,51.58
2023-03-24T02:43:21.316Z,59.01
2023-03-24T02:44:21.302Z,50.55
2023-03-24T02:45:21.295Z,54.35
2023-03-24T02:46:21.336Z,46.78
2023-03-24T02:47:21.403Z,53.48
2023-03-24T02:48:21.274Z,50.89
2023-03-24T02:49:21.266Z,42.76
2023-03-24T02:50:21.259Z,54.06
2023-03-24T02:51:21.249Z,48.88
2023-03-24T02:52:21.263Z,51.84
2023-03-24T02:53:21.237Z,46.73
2023-03-24T02:54:21.227Z,40.13
2023-03-24T02:55:21.213Z,53.38
2023-03-24T02:56:21.206Z,54.26
2023-03-24T02:57:21.225Z,44.19
2023-03-24T02:58:21.193Z,47.03
2023-03-24T02:59:21.180Z,49.55
2023-03-24T03:00:21.192Z,42.88
2023-03-24T03:01:21.201Z,50.77
2023-03-24T03:02:21.231Z,48.07
2023-03-24T03:03:21.155Z,48.72
2023-03-24T03:04:21.187Z,48.04
2023-03-24T03:05:21.149Z,59.25
2023-03-24T03:06:21.135Z,53.41
2023-03-24T03:07:21.150Z,59.24
2023-03-24T03:08:21.159Z,44.73
2023-03-24T03:09:21.115Z,45.48
2023-03-24T03:10:21.119Z,43.51
2023-03-24T03:11:21.094Z,59.42
2023-03-24T03:12:21.115Z,43.72
2023-03-24T03:13:21.091Z,54.10
2023-03-24T03:14:21.076Z,43.53
2023-03-24T03:15:21.076Z,40.83
2023-03-24T03:16:21.136Z,40.29
2023-03-24T03:17:21.086Z,58.73
2023-03-24T03:18:21.052Z,51.18
2023-03-24T03:19:21.038Z,61.62
2023-03-24T03:20:21.036Z,55.70
2023-03-24T03:21:21.028Z,59.10
2023-03-24T03:22:21.058Z,50.59
2023-03-24T03:23:21.007Z,40.96
2023-03-24T03:24:20.996Z,47.80
2023-03-24T03:25:20.993Z,61.39
2023-03-24T03:26:20.984Z,48.36
2023-03-24T03:27:21.001Z,52.01
2023-03-24T03:28:20.973Z,46.41
2023-03-24T03:29:20.970Z,52.26
2023-03-24T03:30:20.966Z,49.43
2023-03-24T03:31:21.006Z,54.41
2023-03-24T03:32:20.985Z,48.74
2023-03-24T03:33:21.934Z,56.11
2023-03-24T03:34:20.937Z,52.92
2023-03-24T03:35:20.921Z,53.01
2023-03-24T03:36:20.954Z,57.80
2023-03-24T03:37:20.923Z,54.35
2023-03-24T03:38:20.891Z,57.89
2023-03-24T03:39:20.878Z,56.28
2023-03-24T03:40:20.872Z,59.52
2023-03-24T03:41:20.866Z,50.83
2023-03-24T03:42:20.887Z,48.49
2023-03-24T03:43:20.848Z,50.03
2023-03-24T03:44:20.846Z,57.91
2023-03-24T03:45:20.841Z,57.07
2023-03-24T03:46:20.858Z,51.00
2023-03-24T03:47:20.848Z,51.92
2023-03-24T03:48:20.811Z,55.28
2023-03-24T03:49:20.801Z,55.49
2023-03-24T03:50:20.796Z,59.51
2023-03-24T03:51:20.788Z,55.15
2023-03-24T03:52:20.780Z,50.45
2023-03-24T03:53:20.805Z,54.40
2023-03-24T03:54:20.760Z,48.20
2023-03-24T03:55:20.751Z,57.64
2023-03-24T03:56:20.755Z,58.88
2023-03-24T03:57:20.737Z,54.98
2023-03-24T03:58:20.756Z,52.78
2023-03-24T03:59:20.722Z,52.42
2023-03-24T04:00:20.833Z,60.02
2023-03-24T04:01:20.704Z,56.37
2023-03-24T04:02:20.693Z,54.35
2023-03-24T04:03:20.808Z,61.00
2023-03-24T04:04:20.695Z,52.44
2023-03-24T04:05:20.676Z,50.01
2023-03-24T04:06:20.669Z,56.71
2023-03-24T04:07:20.668Z,48.49
2023-03-24T04:08:20.680Z,50.04
2023-03-24T04:09:20.650Z,59.05
2023-03-24T04:10:20.646Z,51.89
2023-03-24T04:11:20.637Z,60.82
2023-03-24T04:12:20.633Z,55.87
2023-03-24T04:13:20.652Z,51.74
2023-03-24T04:14:20.636Z,63.22
2023-03-24T04:15:20.650Z,59.63
2023-03-24T04:16:20.655Z,59.55
2023-03-24T04:17:20.759Z,55.47
2023-03-24T04:18:20.629Z,53.74
2023-03-24T04:19:20.565Z,57.68
2023-03-24T04:20:20.572Z,58.21
2023-03-24T04:21:20.554Z,46.07
2023-03-24T04:22:20.559Z,53.59
2023-03-24T04:23:20.561Z,55.10
2023-03-24T04:24:20.561Z,57.23
2023-03-24T04:25:20.573Z,54.92
2023-03-24T04:26:20.508Z,60.74
2023-03-24T04:27:20.514Z,55.33
2023-03-24T04:28:20.542Z,57.14
2023-03-24T04:29:20.493Z,53.05
2023-03-24T04:30:20.485Z,60.25
2023-03-24T04:31:20.531Z,57.27
2023-03-24T04:32:20.467Z,58.47
2023-03-24T04:33:20.487Z,57.64
2023-03-24T04:34:20.464Z,61.44
2023-03-24T04:35:20.451Z,63.84
2023-03-24T04:36:20.484Z,55.80
2023-03-24T04:37:20.425Z,58.67
2023-03-24T04:38:20.420Z,59.50
2023-03-24T04:39:20.443Z,63.07
2023-03-24T04:40:20.401Z,58.11
2023-03-24T04:41:20.399Z,58.52
2023-03-24T04:42:20.410Z,63.42
2023-03-24T04:43:20.377Z,61.36
2023-03-24T04:44:20.402Z,60.14
2023-03-24T04:45:20.361Z,62.26
2023-03-24T04:46:20.394Z,57.97
2023-03-24T04:47:20.356Z,59.18
2023-03-24T04:48:20.339Z,56.39
2023-03-24T04:49:20.353Z,54.20
2023-03-24T04:50:20.326Z,61.48
2023-03-24T04:51:20.312Z,58.82
2023-03-24T04:52:20.305Z,57.47
2023-03-24T04:53:20.305Z,55.93
2023-03-24T04:54:20.318Z,58.57
2023-03-24T04:55:20.283Z,62.28
2023-03-24T04:56:20.297Z,58.51
2023-03-24T04:57:20.270Z,56.52
2023-03-24T04:58:20.258Z,59.51
2023-03-24T04:59:20.288Z,56.64
2023-03-24T05:00:20.270Z,56.49
2023-03-24T05:01:20.248Z,59.21
2023-03-24T05:02:21.690Z,56.18
2023-03-24T05:03:21.219Z,59.78
2023-03-24T05:04:20.246Z,57.10
2023-03-24T05:05:20.189Z,58.76
2023-03-24T05:06:21.189Z,56.69
2023-03-24T05:07:21.186Z,56.57
2023-03-24T05:08:20.183Z,58.62
2023-03-24T05:09:20.197Z,61.48
2023-03-24T05:10:21.919Z,61.11
2023-03-24T05:11:21.168Z,58.04
2023-03-24T05:12:20.158Z,59.49
2023-03-24T05:13:20.150Z,62.07
2023-03-24T05:14:20.159Z,60.14
2023-03-24T05:15:20.134Z,61.01
2023-03-24T05:16:20.147Z,59.55
2023-03-24T05:17:20.109Z,60.09
2023-03-24T05:18:20.101Z,59.56
2023-03-24T05:19:20.118Z,60.76
2023-03-24T05:20:20.084Z,62.15
2023-03-24T05:21:20.079Z,60.90
2023-03-24T05:22:20.073Z,62.44
2023-03-24T05:23:20.064Z,61.13
2023-03-24T05:24:20.075Z,57.72
2023-03-24T05:25:20.052Z,60.68
2023-03-24T05:26:20.049Z,57.10
2023-03-24T05:27:20.035Z,59.56
2023-03-24T05:28:20.022Z,60.77
2023-03-24T05:29:20.052Z,59.41
2023-03-24T05:30:20.009Z,59.35
2023-03-24T05:31:20.042Z,60.91
2023-03-24T05:32:19.996Z,61.83
2023-03-24T05:33:19.986Z,60.50
2023-03-24T05:34:20.366Z,61.48
2023-03-24T05:35:19.964Z,60.05
2023-03-24T05:36:19.966Z,60.88
2023-03-24T05:37:19.952Z,59.61
2023-03-24T05:38:19.955Z,58.17
2023-03-24T05:39:19.940Z,64.07
2023-03-24T05:40:20.018Z,62.55
2023-03-24T05:41:19.928Z,62.69
2023-03-24T05:42:19.914Z,63.00
2023-03-24T05:43:19.898Z,62.20
2023-03-24T05:44:19.895Z,59.99
2023-03-24T05:45:19.935Z,61.02
2023-03-24T05:46:19.916Z,61.05
2023-03-24T05:47:19.869Z,62.87
2023-03-24T05:48:19.870Z,64.12
2023-03-24T05:49:19.853Z,60.14
2023-03-24T05:50:19.889Z,62.67
2023-03-24T05:51:19.843Z,61.22
2023-03-24T05:52:19.833Z,62.15
2023-03-24T05:53:19.821Z,60.33
2023-03-24T05:54:19.822Z,58.39
2023-03-24T05:55:19.874Z,60.41
2023-03-24T05:56:19.842Z,58.82
2023-03-24T05:57:19.798Z,60.46
2023-03-24T05:58:19.794Z,59.11
2023-03-24T05:59:19.786Z,61.57
2023-03-24T06:00:19.798Z,63.32
2023-03-24T06:01:19.763Z,58.98
2023-03-24T06:02:19.773Z,62.13
2023-03-24T06:03:19.830Z,57.56
2023-03-24T06:04:19.795Z,60.66
2023-03-24T06:05:19.751Z,61.31
2023-03-24T06:06:19.721Z,59.71
2023-03-24T06:07:19.714Z,59.44
2023-03-24T06:08:19.724Z,57.20
2023-03-24T06:09:19.722Z,61.43
2023-03-24T06:10:19.723Z,59.70
2023-03-24T06:11:19.684Z,58.05
2023-03-24T06:12:19.681Z,58.44
2023-03-24T06:13:19.670Z,60.17
2023-03-24T06:14:19.660Z,57.96
2023-03-24T06:15:19.686Z,60.68
2023-03-24T06:16:19.690Z,59.86
2023-03-24T06:17:19.647Z,58.86
2023-03-24T06:18:19.631Z,58.07
2023-03-24T06:19:19.620Z,61.04
2023-03-24T06:20:19.647Z,61.53
2023-03-24T06:21:19.612Z,59.86
2023-03-24T06:22:19.605Z,57.69
2023-03-24T06:23:19.600Z,62.13
2023-03-24T06:24:19.594Z,59.00
2023-03-24T06:25:19.604Z,58.48
2023-03-24T06:26:19.568Z,59.06
2023-03-24T06:27:19.568Z,60.26
2023-03-24T06:28:19.566Z,59.40
2023-03-24T06:29:19.547Z,59.80
2023-03-24T06:30:19.572Z,60.57
2023-03-24T06:31:19.582Z,59.91
2023-03-24T06:32:19.537Z,59.84
2023-03-24T06:33:19.515Z,58.60
2023-03-24T06:34:19.511Z,64.51
2023-03-24T06:35:19.532Z,61.26
2023-03-24T06:36:19.496Z,60.61
2023-03-24T06:37:19.478Z,59.60
2023-03-24T06:38:19.479Z,60.32
2023-03-24T06:39:19.472Z,62.97
2023-03-24T06:40:19.515Z,61.21
2023-03-24T06:41:19.453Z,60.60
2023-03-24T06:42:19.445Z,59.30
2023-03-24T06:43:19.437Z,59.17
2023-03-24T06:44:19.424Z,63.00
2023-03-24T06:45:19.447Z,61.47
2023-03-24T06:46:19.430Z,59.21
2023-03-24T06:47:19.420Z,62.01
2023-03-24T06:48:19.401Z,58.51
2023-03-24T06:49:19.390Z,61.07
2023-03-24T06:50:19.411Z,59.15
2023-03-24T06:51:19.407Z,58.97
2023-03-24T06:52:19.368Z,58.44
2023-03-24T06:53:19.353Z,57.41
2023-03-24T06:54:19.352Z,59.04
2023-03-24T06:55:19.345Z,55.90
2023-03-24T06:56:19.362Z,57.59
2023-03-24T06:57:19.327Z,57.05
2023-03-24T06:58:19.316Z,59.23
2023-03-24T06:59:19.309Z,57.04
2023-03-24T07:00:19.359Z,59.92
2023-03-24T07:01:19.343Z,56.70
2023-03-24T07:02:19.283Z,55.83
2023-03-24T07:03:19.384Z,60.58
2023-03-24T07:04:19.269Z,56.77
2023-03-24T07:05:19.268Z,58.10
2023-03-24T07:06:19.289Z,59.30
2023-03-24T07:08:06.068Z,57.31
2023-03-24T07:08:36.679Z,60.24
2023-03-24T07:09:21.228Z,55.72
2023-03-24T07:10:19.227Z,57.64
2023-03-24T07:11:19.243Z,53.74
2023-03-24T07:12:19.203Z,57.48
2023-03-24T07:13:19.200Z,59.38
2023-03-24T07:14:19.189Z,57.52
2023-03-24T07:15:19.182Z,58.55
2023-03-24T07:16:19.269Z,52.77
2023-03-24T07:17:19.165Z,58.72
2023-03-24T07:18:19.208Z,55.61
2023-03-24T07:19:19.157Z,52.57
2023-03-24T07:20:19.136Z,58.78
2023-03-24T07:21:19.161Z,54.26
2023-03-24T07:22:19.122Z,58.69
2023-03-24T07:23:19.128Z,57.95
2023-03-24T07:24:19.111Z,57.94
2023-03-24T07:25:19.099Z,59.51
2023-03-24T07:26:19.119Z,53.90
2023-03-24T07:27:19.092Z,60.81
2023-03-24T07:28:19.080Z,56.50
2023-03-24T07:29:19.065Z,54.37
2023-03-24T07:30:24.200Z,58.71
2023-03-24T07:31:21.114Z,58.82
2023-03-24T07:32:19.051Z,57.24
2023-03-24T07:33:19.031Z,55.72
2023-03-24T07:34:19.227Z,60.12
2023-03-24T07:35:19.026Z,58.45
2023-03-24T07:36:19.083Z,56.46
2023-03-24T07:37:19.009Z,58.24
2023-03-24T07:38:18.996Z,53.95
2023-03-24T07:39:18.991Z,58.44
2023-03-24T07:40:18.990Z,56.50
2023-03-24T07:41:19.005Z,59.36
2023-03-24T07:42:18.967Z,58.68
2023-03-24T07:43:18.972Z,58.47
2023-03-24T07:44:18.951Z,57.56
2023-03-24T07:45:18.938Z,58.20
2023-03-24T07:46:19.023Z,57.75
2023-03-24T07:47:18.918Z,58.96
2023-03-24T07:48:18.924Z,55.93
2023-03-24T07:49:20.082Z,58.30
2023-03-24T07:50:19.898Z,58.78
2023-03-24T07:51:18.917Z,58.49
2023-03-24T07:52:18.881Z,56.34
2023-03-24T07:53:18.877Z,53.70
2023-03-24T07:54:18.878Z,60.12
2023-03-24T07:55:18.858Z,52.57
2023-03-24T07:56:18.888Z,55.67
2023-03-24T07:57:18.847Z,56.36
2023-03-24T07:58:18.847Z,53.30
2023-03-24T07:59:18.870Z,53.97
2023-03-24T08:00:19.029Z,56.21
2023-03-24T08:01:18.847Z,55.14
2023-03-24T08:02:18.885Z,58.28
2023-03-24T08:03:18.901Z,56.49
2023-03-24T08:04:18.936Z,60.03
2023-03-24T08:05:18.784Z,57.02
2023-03-24T08:06:18.809Z,55.17
2023-03-24T08:07:18.768Z,59.71
2023-03-24T08:08:18.791Z,55.19
2023-03-24T08:09:18.762Z,57.93
2023-03-24T08:10:18.740Z,60.57
2023-03-24T08:11:18.761Z,60.11
2023-03-24T08:12:20.772Z,56.31
2023-03-24T08:13:19.740Z,55.00
2023-03-24T08:14:18.713Z,57.85
2023-03-24T08:15:18.732Z,56.51
2023-03-24T08:16:18.747Z,52.80
2023-03-24T08:17:18.698Z,58.83
2023-03-24T08:18:18.680Z,56.13
2023-03-24T08:19:18.668Z,53.75
2023-03-24T08:20:18.669Z,56.93
2023-03-24T08:21:18.661Z,55.12
2023-03-24T08:22:18.684Z,58.43
2023-03-24T08:23:18.653Z,57.53
2023-03-24T08:24:18.635Z,55.02
2023-03-24T08:25:18.758Z,57.63
2023-03-24T08:26:18.618Z,59.05
2023-03-24T08:27:18.633Z,55.05
2023-03-24T08:28:18.614Z,53.97
2023-03-24T08:29:18.600Z,54.49
2023-03-24T08:30:18.586Z,58.79
2023-03-24T08:31:18.599Z,56.74
2023-03-24T08:32:18.596Z,56.29
2023-03-24T08:33:18.561Z,56.94
2023-03-24T08:34:18.553Z,57.09
2023-03-24T08:35:18.611Z,57.09
2023-03-24T08:36:18.560Z,58.56
2023-03-24T08:37:18.558Z,55.05
2023-03-24T08:38:19.185Z,57.36
2023-03-24T08:39:19.511Z,56.63
2023-03-24T08:40:18.538Z,56.93
2023-03-24T08:41:18.509Z,55.88
2023-03-24T08:42:18.532Z,54.30
2023-03-24T08:43:18.501Z,57.25
2023-03-24T08:44:18.471Z,58.75
2023-03-24T08:45:18.464Z,62.03
2023-03-24T08:46:18.479Z,58.66
2023-03-24T08:47:18.488Z,58.84
2023-03-24T08:48:18.491Z,58.77
2023-03-24T08:49:18.435Z,61.33
2023-03-24T08:50:18.424Z,58.11
2023-03-24T08:51:18.417Z,58.75
2023-03-24T08:52:18.442Z,56.91
2023-03-24T08:53:18.402Z,55.85
2023-03-24T08:54:18.420Z,56.71
2023-03-24T08:55:18.391Z,55.48
2023-03-24T08:56:18.373Z,61.19
2023-03-24T08:57:18.390Z,55.29
2023-03-24T08:58:18.357Z,57.29
2023-03-24T08:59:18.348Z,54.95
2023-03-24T09:00:18.343Z,56.98
2023-03-24T09:01:19.377Z,58.61
2023-03-24T09:02:18.358Z,54.79
2023-03-24T09:03:18.608Z,57.04
2023-03-24T09:04:18.354Z,58.41
2023-03-24T09:05:18.482Z,60.28
2023-03-24T09:06:18.295Z,59.07
2023-03-24T09:07:18.312Z,58.24
2023-03-24T09:08:18.304Z,58.67
2023-03-24T09:09:18.275Z,58.72
2023-03-24T09:10:18.263Z,57.22
2023-03-24T09:11:18.279Z,57.61
2023-03-24T09:12:18.247Z,59.21
2023-03-24T09:13:18.272Z,60.79
2023-03-24T09:14:18.241Z,59.03
2023-03-24T09:15:18.258Z,57.20
2023-03-24T09:16:18.267Z,57.18
2023-03-24T09:17:18.205Z,58.39
2023-03-24T09:18:18.244Z,58.28
2023-03-24T09:19:18.222Z,57.03
2023-03-24T09:20:19.197Z,55.37
2023-03-24T09:21:18.193Z,56.53
2023-03-24T09:22:18.168Z,59.77
2023-03-24T09:23:18.261Z,60.81
2023-03-24T09:24:18.158Z,59.09
2023-03-24T09:25:18.209Z,57.46
2023-03-24T09:26:18.143Z,58.16
2023-03-24T09:27:18.141Z,60.30
2023-03-24T09:28:18.150Z,60.07
2023-03-24T09:29:18.113Z,60.59
2023-03-24T09:30:18.103Z,61.07
2023-03-24T09:31:18.168Z,61.65
2023-03-24T09:32:18.095Z,59.77
2023-03-24T09:33:18.127Z,63.12
2023-03-24T09:34:18.073Z,61.72
2023-03-24T09:35:18.067Z,57.78
2023-03-24T09:36:18.122Z,59.63
2023-03-24T09:37:18.053Z,59.92
2023-03-24T09:38:18.070Z,54.37
2023-03-24T09:39:19.740Z,59.23
2023-03-24T09:40:19.024Z,58.66
2023-03-24T09:41:18.018Z,57.79
2023-03-24T09:42:18.023Z,59.24
2023-03-24T09:43:18.028Z,61.38
2023-03-24T09:44:18.008Z,59.00
2023-03-24T09:45:17.992Z,60.43
2023-03-24T09:46:18.010Z,60.29
2023-03-24T09:47:17.973Z,60.25
2023-03-24T09:48:17.991Z,58.08
2023-03-24T09:49:17.954Z,57.88
2023-03-24T09:50:17.968Z,60.15
2023-03-24T09:51:17.935Z,58.19
2023-03-24T09:52:18.937Z,58.17
2023-03-24T09:53:17.957Z,60.62
2023-03-24T09:54:17.914Z,61.59
2023-03-24T09:55:17.910Z,59.60
2023-03-24T09:56:17.909Z,61.06
2023-03-24T09:57:17.918Z,61.98
2023-03-24T09:58:17.905Z,60.55
2023-03-24T09:59:17.882Z,62.13
2023-03-24T10:00:17.863Z,60.96
2023-03-24T10:01:17.998Z,61.77
2023-03-24T10:02:17.849Z,59.68
2023-03-24T10:03:17.921Z,61.64
2023-03-24T10:04:17.851Z,62.58
2023-03-24T10:05:17.828Z,58.92
2023-03-24T10:06:18.825Z,58.65
2023-03-24T10:07:17.810Z,61.53
2023-03-24T10:08:17.843Z,59.59
2023-03-24T10:09:17.800Z,59.68
2023-03-24T10:10:17.781Z,59.32
2023-03-24T10:11:17.826Z,58.80
2023-03-24T10:12:17.771Z,60.20
2023-03-24T10:13:17.803Z,59.97
2023-03-24T10:14:17.762Z,61.05
2023-03-24T10:15:24.245Z,60.54
2023-03-24T10:16:19.775Z,57.93
2023-03-24T10:17:17.738Z,58.53
2023-03-24T10:18:17.728Z,58.64
2023-03-24T10:19:17.758Z,56.73
2023-03-24T10:20:17.718Z,60.22
2023-03-24T10:21:17.709Z,58.17
2023-03-24T10:22:17.697Z,57.78
2023-03-24T10:23:17.697Z,59.82
2023-03-24T10:24:17.724Z,63.37
2023-03-24T10:25:17.672Z,58.02
2023-03-24T10:26:17.677Z,58.85
2023-03-24T10:27:17.670Z,61.71
2023-03-24T10:28:17.657Z,57.86
2023-03-24T10:29:17.675Z,57.21
2023-03-24T10:30:17.653Z,56.74
2023-03-24T10:31:17.678Z,59.81
2023-03-24T10:32:17.621Z,62.84
2023-03-24T10:33:17.646Z,60.39
2023-03-24T10:34:17.629Z,59.80
2023-03-24T10:35:17.594Z,60.26
2023-03-24T10:36:17.634Z,59.29
2023-03-24T10:37:17.592Z,61.11
2023-03-24T10:38:17.580Z,60.99
2023-03-24T10:39:22.477Z,57.45
2023-03-24T10:40:19.556Z,60.50
2023-03-24T10:41:17.553Z,57.32
2023-03-24T10:42:17.546Z,63.68
2023-03-24T10:43:17.542Z,63.23
2023-03-24T10:44:17.558Z,60.46
2023-03-24T10:45:17.527Z,60.67
2023-03-24T10:46:17.657Z,61.10
2023-03-24T10:47:17.510Z,62.63
2023-03-24T10:48:17.503Z,61.44
2023-03-24T10:49:17.526Z,60.60
2023-03-24T10:50:17.499Z,59.59
2023-03-24T10:51:17.477Z,59.00
2023-03-24T10:52:17.480Z,58.11
2023-03-24T10:53:17.471Z,59.60
2023-03-24T10:54:17.487Z,61.31
2023-03-24T10:55:17.472Z,60.74
2023-03-24T10:56:17.438Z,62.07
2023-03-24T10:57:17.425Z,59.30
2023-03-24T10:58:17.427Z,58.63
2023-03-24T10:59:17.436Z,59.46
2023-03-24T11:00:17.414Z,62.84
2023-03-24T11:01:17.413Z,60.28
2023-03-24T11:02:17.438Z,58.74
2023-03-24T11:03:17.453Z,58.14
2023-03-24T11:04:17.402Z,62.44
2023-03-24T11:05:17.360Z,61.33
2023-03-24T11:06:17.353Z,55.56
2023-03-24T11:07:17.362Z,59.43
2023-03-24T11:08:17.350Z,60.59
2023-03-24T11:09:17.359Z,58.09
2023-03-24T11:10:17.342Z,58.63
2023-03-24T11:11:17.332Z,57.11
2023-03-24T11:12:17.313Z,60.37
2023-03-24T11:13:18.836Z,59.87
2023-03-24T11:14:18.320Z,61.02
2023-03-24T11:15:21.463Z,59.09
2023-03-24T11:16:19.320Z,58.58
2023-03-24T11:17:17.266Z,58.75
2023-03-24T11:18:17.258Z,60.94
2023-03-24T11:19:18.320Z,57.22
2023-03-24T11:20:18.275Z,61.07
2023-03-24T11:21:17.235Z,62.27
2023-03-24T11:22:17.223Z,57.19
2023-03-24T11:23:17.226Z,59.28
2023-03-24T11:24:17.215Z,58.65
2023-03-24T11:25:17.225Z,57.29
2023-03-24T11:26:17.202Z,58.42
2023-03-24T11:27:17.181Z,59.48
2023-03-24T11:28:18.175Z,59.17
2023-03-24T11:29:17.183Z,59.48
2023-03-24T11:30:17.207Z,58.70
2023-03-24T11:31:17.265Z,59.33
2023-03-24T11:32:17.158Z,55.08
2023-03-24T11:33:17.135Z,56.58
2023-03-24T11:34:17.132Z,58.04
2023-03-24T11:35:17.149Z,55.52
2023-03-24T11:36:17.144Z,60.71
2023-03-24T11:37:17.098Z,58.09
2023-03-24T11:38:17.133Z,56.97
2023-03-24T11:39:17.090Z,61.56
2023-03-24T11:40:17.206Z,57.33
2023-03-24T11:41:17.073Z,60.00
2023-03-24T11:42:17.080Z,57.37
2023-03-24T11:43:17.065Z,59.47
2023-03-24T11:44:17.060Z,61.18
2023-03-24T11:45:17.092Z,58.69
2023-03-24T11:46:17.068Z,61.97
2023-03-24T11:47:17.038Z,61.32
2023-03-24T11:48:17.019Z,58.89
2023-03-24T11:49:17.012Z,61.00
2023-03-24T11:50:17.049Z,58.84
2023-03-24T11:51:16.997Z,59.99
2023-03-24T11:52:17.009Z,58.50
2023-03-24T11:53:16.979Z,57.08
2023-03-24T11:54:16.971Z,58.29
2023-03-24T11:55:17.040Z,56.59
2023-03-24T11:56:16.972Z,59.33
2023-03-24T11:57:16.978Z,56.05
2023-03-24T11:58:16.956Z,55.22
2023-03-24T11:59:16.930Z,59.21
2023-03-24T12:00:16.995Z,57.37
2023-03-24T12:01:16.923Z,58.08
2023-03-24T12:02:16.960Z,58.10
2023-03-24T12:03:16.922Z,56.93
2023-03-24T12:04:17.797Z,57.86
2023-03-24T12:05:16.916Z,55.97
2023-03-24T12:06:16.959Z,57.83
2023-03-24T12:07:16.879Z,59.24
2023-03-24T12:08:16.875Z,58.15
2023-03-24T12:09:16.868Z,58.04
2023-03-24T12:10:16.964Z,57.03
2023-03-24T12:11:19.234Z,57.01
2023-03-24T12:12:17.843Z,58.33
2023-03-24T12:13:29.967Z,56.73
2023-03-24T12:14:18.816Z,58.30
2023-03-24T12:15:27.400Z,57.26
2023-03-24T12:16:18.844Z,56.48
2023-03-24T12:17:16.792Z,57.46
2023-03-24T12:18:16.787Z,59.33
2023-03-24T12:19:16.792Z,59.15
2023-03-24T12:20:16.869Z,61.21
2023-03-24T12:21:16.765Z,60.80
2023-03-24T12:22:16.757Z,56.49
2023-03-24T12:23:16.757Z,56.86
2023-03-24T12:24:16.755Z,60.65
2023-03-24T12:25:16.769Z,57.53
2023-03-24T12:26:16.726Z,54.48
2023-03-24T12:27:16.710Z,58.86
2023-03-24T12:28:17.508Z,57.98
2023-03-24T12:29:16.708Z,59.95
2023-03-24T12:30:16.717Z,57.06
2023-03-24T12:31:16.722Z,58.53
2023-03-24T12:32:16.712Z,55.22
2023-03-24T12:33:16.672Z,56.90
2023-03-24T12:34:16.656Z,56.80
2023-03-24T12:35:17.323Z,54.15
2023-03-24T12:36:16.660Z,57.98
2023-03-24T12:37:16.634Z,58.90
2023-03-24T12:38:16.636Z,59.16
2023-03-24T12:39:16.622Z,56.22
2023-03-24T12:40:16.849Z,58.08
2023-03-24T12:41:16.603Z,58.34
2023-03-24T12:42:16.592Z,57.58
2023-03-24T12:43:17.604Z,57.05
2023-03-24T12:44:16.622Z,59.20
2023-03-24T12:45:16.578Z,54.73
2023-03-24T12:46:16.615Z,55.43
2023-03-24T12:47:16.567Z,57.34
2023-03-24T12:48:16.570Z,60.08
2023-03-24T12:49:16.547Z,57.13
2023-03-24T12:50:17.544Z,56.71
2023-03-24T12:51:16.567Z,59.17
2023-03-24T12:52:16.529Z,56.70